Alvwood, Minnesota
Current Conditions -  °F | °C
As of 1:14 AM on Saturday 25 Oct 2014 (Local Time) from KVWU Reporting Station
Clear Clear  
Wind Chill: 52°   Ceiling: Unl
Heat Index: 52°   Visibility: 10mi
Dew Point: 39°   Wind: 15mph
Humidity: 62%   Direction: 260°W
Pressure: 29.83"   Gusts: 20mph
Location:  47.7306°N, 94.3762°W
Report Text: KVWU 250614Z AUTO 26013G17KT 10SM CLR 11/04 A2983 RMK AO2
Loading
Personal Weather Stations






























Interactive Weather Map
Tropical Storm Tracking
New forecast layout! Learn more

10-Day Weather Forecast

Advertisements
Track Severe Weather on mobile